sensor_id;sensor_type;location;lat;lon;timestamp;P1;durP1;ratioP1;P2;durP2;ratioP2
35026;SDS011;60696;51.426;6.934;2023-04-03T00:02:12;9.85;;;3.17;;
35026;SDS011;60696;51.426;6.934;2023-04-03T00:04:37;5.05;;;2.47;;
35026;SDS011;60696;51.426;6.934;2023-04-03T00:07:03;6.13;;;2.40;;
35026;SDS011;60696;51.426;6.934;2023-04-03T00:09:29;7.03;;;2.88;;
35026;SDS011;60696;51.426;6.934;2023-04-03T00:11:55;7.05;;;3.00;;
35026;SDS011;60696;51.426;6.934;2023-04-03T00:14:20;4.30;;;2.50;;
35026;SDS011;60696;51.426;6.934;2023-04-03T00:16:46;5.28;;;2.67;;
35026;SDS011;60696;51.426;6.934;2023-04-03T00:19:11;6.35;;;2.97;;
35026;SDS011;60696;51.426;6.934;2023-04-03T00:21:37;9.85;;;3.13;;
35026;SDS011;60696;51.426;6.934;2023-04-03T00:24:03;4.28;;;2.50;;
35026;SDS011;60696;51.426;6.934;2023-04-03T00:26:29;7.95;;;3.60;;
35026;SDS011;60696;51.426;6.934;2023-04-03T00:28:55;7.97;;;3.20;;
35026;SDS011;60696;51.426;6.934;2023-04-03T00:31:21;9.02;;;2.65;;
35026;SDS011;60696;51.426;6.934;2023-04-03T00:33:46;4.75;;;2.78;;
35026;SDS011;60696;51.426;6.934;2023-04-03T00:36:12;5.45;;;3.25;;
35026;SDS011;60696;51.426;6.934;2023-04-03T00:38:38;5.10;;;3.13;;
35026;SDS011;60696;51.426;6.934;2023-04-03T00:41:04;7.13;;;2.80;;
35026;SDS011;60696;51.426;6.934;2023-04-03T00:43:30;7.28;;;3.38;;
35026;SDS011;60696;51.426;6.934;2023-04-03T00:45:57;6.03;;;3.03;;
35026;SDS011;60696;51.426;6.934;2023-04-03T00:51:00;4.03;;;2.30;;
35026;SDS011;60696;51.426;6.934;2023-04-03T00:53:29;6.72;;;2.55;;
35026;SDS011;60696;51.426;6.934;2023-04-03T00:56:02;6.13;;;2.95;;
35026;SDS011;60696;51.426;6.934;2023-04-03T00:58:33;8.10;;;3.03;;
35026;SDS011;60696;51.426;6.934;2023-04-03T01:03:30;6.38;;;3.50;;
35026;SDS011;60696;51.426;6.934;2023-04-03T01:05:56;9.70;;;3.47;;
35026;SDS011;60696;51.426;6.934;2023-04-03T01:08:22;6.88;;;3.30;;
35026;SDS011;60696;51.426;6.934;2023-04-03T01:10:48;7.50;;;3.03;;
35026;SDS011;60696;51.426;6.934;2023-04-03T01:13:19;6.72;;;3.10;;
35026;SDS011;60696;51.426;6.934;2023-04-03T01:15:56;8.88;;;3.15;;
35026;SDS011;60696;51.426;6.934;2023-04-03T01:18:25;8.80;;;3.55;;
35026;SDS011;60696;51.426;6.934;2023-04-03T01:23:52;5.32;;;2.80;;
35026;SDS011;60696;51.426;6.934;2023-04-03T01:26:20;6.45;;;3.30;;
35026;SDS011;60696;51.426;6.934;2023-04-03T01:28:46;8.50;;;3.13;;
35026;SDS011;60696;51.426;6.934;2023-04-03T01:31:15;11.50;;;3.97;;
35026;SDS011;60696;51.426;6.934;2023-04-03T01:33:47;8.98;;;3.80;;
35026;SDS011;60696;51.426;6.934;2023-04-03T01:36:15;7.97;;;3.08;;
35026;SDS011;60696;51.426;6.934;2023-04-03T01:38:46;6.32;;;3.28;;
35026;SDS011;60696;51.426;6.934;2023-04-03T01:41:12;8.75;;;2.88;;
35026;SDS011;60696;51.426;6.934;2023-04-03T01:43:37;6.80;;;3.17;;
35026;SDS011;60696;51.426;6.934;2023-04-03T01:46:03;2.83;;;2.15;;
35026;SDS011;60696;51.426;6.934;2023-04-03T01:48:28;7.97;;;3.20;;
35026;SDS011;60696;51.426;6.934;2023-04-03T01:50:54;7.55;;;3.03;;
35026;SDS011;60696;51.426;6.934;2023-04-03T01:53:20;7.15;;;2.78;;
35026;SDS011;60696;51.426;6.934;2023-04-03T01:55:45;4.07;;;2.17;;
35026;SDS011;60696;51.426;6.934;2023-04-03T01:58:11;3.78;;;2.08;;
35026;SDS011;60696;51.426;6.934;2023-04-03T02:00:37;3.70;;;2.25;;
35026;SDS011;60696;51.426;6.934;2023-04-03T02:03:02;6.72;;;2.47;;
35026;SDS011;60696;51.426;6.934;2023-04-03T02:05:28;5.93;;;2.55;;
35026;SDS011;60696;51.426;6.934;2023-04-03T02:07:53;4.53;;;2.63;;
35026;SDS011;60696;51.426;6.934;2023-04-03T02:10:19;4.50;;;2.45;;
35026;SDS011;60696;51.426;6.934;2023-04-03T02:12:45;4.15;;;2.35;;
35026;SDS011;60696;51.426;6.934;2023-04-03T02:15:11;5.22;;;2.17;;
35026;SDS011;60696;51.426;6.934;2023-04-03T02:17:36;3.25;;;1.83;;
35026;SDS011;60696;51.426;6.934;2023-04-03T02:20:02;3.85;;;2.20;;
35026;SDS011;60696;51.426;6.934;2023-04-03T02:22:28;9.93;;;2.15;;
35026;SDS011;60696;51.426;6.934;2023-04-03T02:24:54;4.18;;;2.03;;
35026;SDS011;60696;51.426;6.934;2023-04-03T02:27:20;5.80;;;1.65;;
35026;SDS011;60696;51.426;6.934;2023-04-03T02:29:45;4.35;;;2.08;;
35026;SDS011;60696;51.426;6.934;2023-04-03T02:32:11;2.80;;;1.30;;
35026;SDS011;60696;51.426;6.934;2023-04-03T02:34:36;4.97;;;2.00;;
35026;SDS011;60696;51.426;6.934;2023-04-03T02:37:02;7.88;;;2.08;;
35026;SDS011;60696;51.426;6.934;2023-04-03T02:39:27;6.22;;;2.00;;
35026;SDS011;60696;51.426;6.934;2023-04-03T02:41:53;2.28;;;1.30;;
35026;SDS011;60696;51.426;6.934;2023-04-03T02:44:19;2.65;;;1.67;;
35026;SDS011;60696;51.426;6.934;2023-04-03T02:46:44;3.58;;;1.80;;
35026;SDS011;60696;51.426;6.934;2023-04-03T02:49:10;3.45;;;1.35;;
35026;SDS011;60696;51.426;6.934;2023-04-03T02:51:36;3.35;;;1.67;;
35026;SDS011;60696;51.426;6.934;2023-04-03T02:54:01;4.00;;;1.52;;
35026;SDS011;60696;51.426;6.934;2023-04-03T02:56:27;5.30;;;1.33;;
35026;SDS011;60696;51.426;6.934;2023-04-03T02:58:53;1.48;;;1.10;;
35026;SDS011;60696;51.426;6.934;2023-04-03T03:01:18;9.82;;;1.58;;
35026;SDS011;60696;51.426;6.934;2023-04-03T03:03:44;5.63;;;1.30;;
35026;SDS011;60696;51.426;6.934;2023-04-03T03:06:11;3.75;;;1.15;;
35026;SDS011;60696;51.426;6.934;2023-04-03T03:08:38;6.07;;;1.70;;
35026;SDS011;60696;51.426;6.934;2023-04-03T03:11:04;1.17;;;0.98;;
35026;SDS011;60696;51.426;6.934;2023-04-03T03:13:31;5.13;;;0.82;;
35026;SDS011;60696;51.426;6.934;2023-04-03T03:15:57;3.42;;;1.48;;
35026;SDS011;60696;51.426;6.934;2023-04-03T03:18:23;2.42;;;1.15;;
35026;SDS011;60696;51.426;6.934;2023-04-03T03:20:52;2.00;;;1.13;;
35026;SDS011;60696;51.426;6.934;2023-04-03T03:23:19;1.27;;;0.82;;
35026;SDS011;60696;51.426;6.934;2023-04-03T03:25:45;2.58;;;0.90;;
35026;SDS011;60696;51.426;6.934;2023-04-03T03:28:11;3.67;;;1.02;;
35026;SDS011;60696;51.426;6.934;2023-04-03T03:30:37;3.05;;;0.98;;
35026;SDS011;60696;51.426;6.934;2023-04-03T03:33:03;2.53;;;1.20;;
35026;SDS011;60696;51.426;6.934;2023-04-03T03:35:28;2.40;;;0.98;;
35026;SDS011;60696;51.426;6.934;2023-04-03T03:37:54;1.05;;;0.73;;
35026;SDS011;60696;51.426;6.934;2023-04-03T03:40:20;4.95;;;1.10;;
35026;SDS011;60696;51.426;6.934;2023-04-03T03:42:45;3.88;;;1.00;;
35026;SDS011;60696;51.426;6.934;2023-04-03T03:45:11;2.97;;;0.52;;
35026;SDS011;60696;51.426;6.934;2023-04-03T03:47:37;0.90;;;0.60;;
35026;SDS011;60696;51.426;6.934;2023-04-03T03:50:02;2.58;;;0.90;;
35026;SDS011;60696;51.426;6.934;2023-04-03T03:52:28;0.77;;;0.50;;
35026;SDS011;60696;51.426;6.934;2023-04-03T03:54:55;3.58;;;1.20;;
35026;SDS011;60696;51.426;6.934;2023-04-03T03:57:21;3.13;;;1.00;;
35026;SDS011;60696;51.426;6.934;2023-04-03T03:59:46;2.30;;;0.77;;
35026;SDS011;60696;51.426;6.934;2023-04-03T04:02:13;4.65;;;0.90;;
35026;SDS011;60696;51.426;6.934;2023-04-03T04:04:39;1.23;;;0.80;;
35026;SDS011;60696;51.426;6.934;2023-04-03T04:07:05;0.93;;;0.47;;
35026;SDS011;60696;51.426;6.934;2023-04-03T04:09:31;2.53;;;0.28;;
35026;SDS011;60696;51.426;6.934;2023-04-03T04:11:56;3.83;;;1.00;;
35026;SDS011;60696;51.426;6.934;2023-04-03T04:14:22;0.82;;;0.68;;
35026;SDS011;60696;51.426;6.934;2023-04-03T04:16:48;2.15;;;0.95;;
35026;SDS011;60696;51.426;6.934;2023-04-03T04:19:14;1.17;;;0.60;;
35026;SDS011;60696;51.426;6.934;2023-04-03T04:21:40;2.97;;;0.93;;
35026;SDS011;60696;51.426;6.934;2023-04-03T04:24:06;2.17;;;0.35;;
35026;SDS011;60696;51.426;6.934;2023-04-03T04:26:32;1.40;;;0.57;;
35026;SDS011;60696;51.426;6.934;2023-04-03T04:28:58;1.73;;;0.60;;
35026;SDS011;60696;51.426;6.934;2023-04-03T04:31:23;0.85;;;0.20;;
35026;SDS011;60696;51.426;6.934;2023-04-03T04:33:49;0.30;;;0.28;;
35026;SDS011;60696;51.426;6.934;2023-04-03T04:36:15;0.85;;;0.40;;
35026;SDS011;60696;51.426;6.934;2023-04-03T04:38:40;5.00;;;1.13;;
35026;SDS011;60696;51.426;6.934;2023-04-03T04:41:07;1.23;;;0.65;;
35026;SDS011;60696;51.426;6.934;2023-04-03T04:43:33;6.45;;;1.10;;
35026;SDS011;60696;51.426;6.934;2023-04-03T04:46:05;1.58;;;0.57;;
35026;SDS011;60696;51.426;6.934;2023-04-03T04:48:33;1.15;;;0.65;;
35026;SDS011;60696;51.426;6.934;2023-04-03T04:50:59;1.25;;;0.60;;
35026;SDS011;60696;51.426;6.934;2023-04-03T04:53:25;1.40;;;0.60;;
35026;SDS011;60696;51.426;6.934;2023-04-03T04:55:51;3.95;;;0.95;;
35026;SDS011;60696;51.426;6.934;2023-04-03T04:58:17;6.13;;;0.80;;
35026;SDS011;60696;51.426;6.934;2023-04-03T05:00:43;1.27;;;0.60;;
35026;SDS011;60696;51.426;6.934;2023-04-03T05:03:09;2.80;;;0.85;;
35026;SDS011;60696;51.426;6.934;2023-04-03T05:05:35;3.72;;;0.70;;
35026;SDS011;60696;51.426;6.934;2023-04-03T05:08:01;2.42;;;0.65;;
35026;SDS011;60696;51.426;6.934;2023-04-03T05:10:27;5.55;;;0.88;;
35026;SDS011;60696;51.426;6.934;2023-04-03T05:12:53;1.38;;;0.73;;
35026;SDS011;60696;51.426;6.934;2023-04-03T05:15:19;1.65;;;0.57;;
35026;SDS011;60696;51.426;6.934;2023-04-03T05:17:45;3.35;;;0.28;;
35026;SDS011;60696;51.426;6.934;2023-04-03T05:20:11;3.55;;;1.23;;
35026;SDS011;60696;51.426;6.934;2023-04-03T05:22:36;10.35;;;1.48;;
35026;SDS011;60696;51.426;6.934;2023-04-03T05:25:02;3.25;;;1.02;;
35026;SDS011;60696;51.426;6.934;2023-04-03T05:27:28;0.55;;;0.38;;
35026;SDS011;60696;51.426;6.934;2023-04-03T05:29:54;2.70;;;1.15;;
35026;SDS011;60696;51.426;6.934;2023-04-03T05:32:21;10.00;;;1.65;;
35026;SDS011;60696;51.426;6.934;2023-04-03T05:34:48;3.13;;;0.82;;
35026;SDS011;60696;51.426;6.934;2023-04-03T05:37:14;4.38;;;0.93;;
35026;SDS011;60696;51.426;6.934;2023-04-03T05:39:39;1.95;;;0.75;;
35026;SDS011;60696;51.426;6.934;2023-04-03T05:42:06;1.73;;;0.70;;
35026;SDS011;60696;51.426;6.934;2023-04-03T05:44:32;2.42;;;0.52;;
35026;SDS011;60696;51.426;6.934;2023-04-03T05:46:58;0.75;;;0.68;;
35026;SDS011;60696;51.426;6.934;2023-04-03T05:49:24;1.13;;;0.63;;
35026;SDS011;60696;51.426;6.934;2023-04-03T05:51:49;4.20;;;0.80;;
35026;SDS011;60696;51.426;6.934;2023-04-03T05:54:20;5.25;;;1.27;;
35026;SDS011;60696;51.426;6.934;2023-04-03T05:56:49;4.35;;;1.00;;
35026;SDS011;60696;51.426;6.934;2023-04-03T05:59:15;2.53;;;0.90;;
35026;SDS011;60696;51.426;6.934;2023-04-03T06:01:41;1.42;;;0.77;;
35026;SDS011;60696;51.426;6.934;2023-04-03T06:04:07;0.47;;;0.32;;
35026;SDS011;60696;51.426;6.934;2023-04-03T06:09:32;1.95;;;0.82;;
35026;SDS011;60696;51.426;6.934;2023-04-03T06:11:58;2.25;;;0.82;;
35026;SDS011;60696;51.426;6.934;2023-04-03T06:14:25;4.60;;;1.27;;
35026;SDS011;60696;51.426;6.934;2023-04-03T06:16:51;4.00;;;1.20;;
35026;SDS011;60696;51.426;6.934;2023-04-03T06:19:18;4.93;;;0.65;;
35026;SDS011;60696;51.426;6.934;2023-04-03T06:21:45;2.58;;;1.10;;
35026;SDS011;60696;51.426;6.934;2023-04-03T06:24:12;4.32;;;0.65;;
35026;SDS011;60696;51.426;6.934;2023-04-03T06:26:40;3.75;;;0.77;;
35026;SDS011;60696;51.426;6.934;2023-04-03T06:29:06;0.60;;;0.38;;
35026;SDS011;60696;51.426;6.934;2023-04-03T06:31:32;2.45;;;0.80;;
35026;SDS011;60696;51.426;6.934;2023-04-03T06:33:57;3.22;;;1.00;;
35026;SDS011;60696;51.426;6.934;2023-04-03T06:36:23;3.10;;;1.63;;
35026;SDS011;60696;51.426;6.934;2023-04-03T06:38:49;2.08;;;0.75;;
35026;SDS011;60696;51.426;6.934;2023-04-03T06:41:15;2.45;;;0.60;;
35026;SDS011;60696;51.426;6.934;2023-04-03T06:43:41;2.03;;;0.82;;
35026;SDS011;60696;51.426;6.934;2023-04-03T06:46:12;4.53;;;0.75;;
35026;SDS011;60696;51.426;6.934;2023-04-03T06:48:42;2.25;;;0.90;;
35026;SDS011;60696;51.426;6.934;2023-04-03T06:51:18;9.35;;;2.25;;
35026;SDS011;60696;51.426;6.934;2023-04-03T06:53:46;1.30;;;0.68;;
35026;SDS011;60696;51.426;6.934;2023-04-03T06:56:13;2.00;;;0.60;;
35026;SDS011;60696;51.426;6.934;2023-04-03T06:58:39;5.80;;;1.58;;
35026;SDS011;60696;51.426;6.934;2023-04-03T07:01:05;0.88;;;0.50;;
35026;SDS011;60696;51.426;6.934;2023-04-03T07:03:31;1.77;;;0.90;;
35026;SDS011;60696;51.426;6.934;2023-04-03T07:05:57;7.45;;;1.05;;
35026;SDS011;60696;51.426;6.934;2023-04-03T07:08:22;3.42;;;0.77;;
35026;SDS011;60696;51.426;6.934;2023-04-03T07:10:48;1.63;;;0.73;;
35026;SDS011;60696;51.426;6.934;2023-04-03T07:13:15;3.15;;;1.20;;
35026;SDS011;60696;51.426;6.934;2023-04-03T07:15:40;0.90;;;0.55;;
35026;SDS011;60696;51.426;6.934;2023-04-03T07:18:06;4.05;;;0.98;;
35026;SDS011;60696;51.426;6.934;2023-04-03T07:20:32;3.75;;;1.15;;
35026;SDS011;60696;51.426;6.934;2023-04-03T07:22:57;3.05;;;1.15;;
35026;SDS011;60696;51.426;6.934;2023-04-03T07:25:23;2.78;;;1.25;;
35026;SDS011;60696;51.426;6.934;2023-04-03T07:27:49;0.32;;;0.32;;
35026;SDS011;60696;51.426;6.934;2023-04-03T07:30:14;1.88;;;0.73;;
35026;SDS011;60696;51.426;6.934;2023-04-03T07:32:40;2.42;;;0.70;;
35026;SDS011;60696;51.426;6.934;2023-04-03T07:35:06;1.50;;;0.63;;
35026;SDS011;60696;51.426;6.934;2023-04-03T07:37:32;0.68;;;0.55;;
35026;SDS011;60696;51.426;6.934;2023-04-03T07:39:57;2.28;;;1.10;;
35026;SDS011;60696;51.426;6.934;2023-04-03T07:42:24;1.65;;;0.47;;
35026;SDS011;60696;51.426;6.934;2023-04-03T07:44:52;1.10;;;0.75;;
35026;SDS011;60696;51.426;6.934;2023-04-03T07:47:18;4.10;;;0.77;;
35026;SDS011;60696;51.426;6.934;2023-04-03T07:49:45;3.70;;;0.85;;
35026;SDS011;60696;51.426;6.934;2023-04-03T07:52:23;3.40;;;0.98;;
35026;SDS011;60696;51.426;6.934;2023-04-03T07:54:49;1.85;;;0.80;;
35026;SDS011;60696;51.426;6.934;2023-04-03T07:57:14;5.20;;;1.17;;
35026;SDS011;60696;51.426;6.934;2023-04-03T07:59:40;1.33;;;0.68;;
35026;SDS011;60696;51.426;6.934;2023-04-03T08:02:09;0.40;;;0.32;;
35026;SDS011;60696;51.426;6.934;2023-04-03T08:04:34;7.68;;;1.35;;
35026;SDS011;60696;51.426;6.934;2023-04-03T08:07:00;2.08;;;0.98;;
35026;SDS011;60696;51.426;6.934;2023-04-03T08:09:26;2.80;;;1.30;;
35026;SDS011;60696;51.426;6.934;2023-04-03T08:11:52;2.58;;;0.60;;
35026;SDS011;60696;51.426;6.934;2023-04-03T08:14:18;3.03;;;0.95;;
35026;SDS011;60696;51.426;6.934;2023-04-03T08:16:46;6.15;;;1.77;;
35026;SDS011;60696;51.426;6.934;2023-04-03T08:19:13;0.20;;;0.20;;
35026;SDS011;60696;51.426;6.934;2023-04-03T08:21:41;5.28;;;0.98;;
35026;SDS011;60696;51.426;6.934;2023-04-03T08:24:07;0.30;;;0.30;;
35026;SDS011;60696;51.426;6.934;2023-04-03T08:26:34;2.40;;;0.70;;
35026;SDS011;60696;51.426;6.934;2023-04-03T08:28:59;2.40;;;0.93;;
35026;SDS011;60696;51.426;6.934;2023-04-03T08:31:25;7.35;;;1.33;;
35026;SDS011;60696;51.426;6.934;2023-04-03T08:33:51;8.80;;;1.08;;
35026;SDS011;60696;51.426;6.934;2023-04-03T08:36:21;3.70;;;0.73;;
35026;SDS011;60696;51.426;6.934;2023-04-03T08:38:49;2.40;;;0.65;;
35026;SDS011;60696;51.426;6.934;2023-04-03T08:41:17;2.53;;;0.70;;
35026;SDS011;60696;51.426;6.934;2023-04-03T08:44:00;1.40;;;0.52;;
35026;SDS011;60696;51.426;6.934;2023-04-03T08:49:37;1.33;;;0.88;;
35026;SDS011;60696;51.426;6.934;2023-04-03T08:52:12;9.82;;;0.88;;
35026;SDS011;60696;51.426;6.934;2023-04-03T08:54:54;1.83;;;0.57;;
35026;SDS011;60696;51.426;6.934;2023-04-03T08:57:28;3.85;;;0.90;;
35026;SDS011;60696;51.426;6.934;2023-04-03T09:00:00;4.00;;;0.63;;
35026;SDS011;60696;51.426;6.934;2023-04-03T09:02:48;2.22;;;0.80;;
35026;SDS011;60696;51.426;6.934;2023-04-03T09:05:17;2.58;;;0.95;;
35026;SDS011;60696;51.426;6.934;2023-04-03T09:07:57;4.13;;;0.90;;
35026;SDS011;60696;51.426;6.934;2023-04-03T09:10:29;2.67;;;0.50;;
35026;SDS011;60696;51.426;6.934;2023-04-03T09:13:07;2.20;;;0.77;;
35026;SDS011;60696;51.426;6.934;2023-04-03T09:15:36;4.55;;;0.60;;
35026;SDS011;60696;51.426;6.934;2023-04-03T09:18:05;2.65;;;0.95;;
35026;SDS011;60696;51.426;6.934;2023-04-03T09:21:03;0.85;;;0.47;;
35026;SDS011;60696;51.426;6.934;2023-04-03T09:23:50;1.00;;;0.60;;
35026;SDS011;60696;51.426;6.934;2023-04-03T09:26:26;4.03;;;0.55;;
35026;SDS011;60696;51.426;6.934;2023-04-03T09:28:58;4.10;;;0.90;;
35026;SDS011;60696;51.426;6.934;2023-04-03T09:31:29;0.80;;;0.47;;
35026;SDS011;60696;51.426;6.934;2023-04-03T09:34:24;2.63;;;0.60;;
35026;SDS011;60696;51.426;6.934;2023-04-03T09:36:54;0.22;;;0.22;;
35026;SDS011;60696;51.426;6.934;2023-04-03T09:39:22;0.32;;;0.20;;
35026;SDS011;60696;51.426;6.934;2023-04-03T09:44:23;1.40;;;0.45;;
35026;SDS011;60696;51.426;6.934;2023-04-03T09:46:50;2.80;;;0.30;;
35026;SDS011;60696;51.426;6.934;2023-04-03T09:49:17;1.50;;;0.47;;
35026;SDS011;60696;51.426;6.934;2023-04-03T09:51:44;0.43;;;0.43;;
35026;SDS011;60696;51.426;6.934;2023-04-03T09:56:54;0.75;;;0.38;;
35026;SDS011;60696;51.426;6.934;2023-04-03T09:59:23;0.75;;;0.40;;
35026;SDS011;60696;51.426;6.934;2023-04-03T10:02:00;2.45;;;0.55;;
35026;SDS011;60696;51.426;6.934;2023-04-03T10:04:37;1.75;;;0.40;;
35026;SDS011;60696;51.426;6.934;2023-04-03T10:07:25;0.10;;;0.10;;
35026;SDS011;60696;51.426;6.934;2023-04-03T10:10:00;1.40;;;0.43;;
35026;SDS011;60696;51.426;6.934;2023-04-03T10:12:28;3.30;;;0.50;;
35026;SDS011;60696;51.426;6.934;2023-04-03T10:14:56;2.38;;;0.57;;
35026;SDS011;60696;51.426;6.934;2023-04-03T10:17:39;0.20;;;0.20;;
35026;SDS011;60696;51.426;6.934;2023-04-03T10:20:32;2.25;;;0.70;;
35026;SDS011;60696;51.426;6.934;2023-04-03T10:31:08;5.00;;;0.80;;
35026;SDS011;60696;51.426;6.934;2023-04-03T10:34:05;0.60;;;0.40;;
35026;SDS011;60696;51.426;6.934;2023-04-03T10:39:46;0.50;;;0.40;;
35026;SDS011;60696;51.426;6.934;2023-04-03T10:45:29;1.25;;;0.50;;
35026;SDS011;60696;51.426;6.934;2023-04-03T10:55:46;1.02;;;0.45;;
35026;SDS011;60696;51.426;6.934;2023-04-03T10:58:32;1.52;;;0.82;;
35026;SDS011;60696;51.426;6.934;2023-04-03T11:01:06;1.88;;;0.65;;
35026;SDS011;60696;51.426;6.934;2023-04-03T11:03:40;1.08;;;0.52;;
35026;SDS011;60696;51.426;6.934;2023-04-03T11:06:12;3.08;;;1.05;;
35026;SDS011;60696;51.426;6.934;2023-04-03T11:11:29;1.75;;;0.70;;
35026;SDS011;60696;51.426;6.934;2023-04-03T11:16:42;3.22;;;0.32;;
35026;SDS011;60696;51.426;6.934;2023-04-03T11:19:13;1.88;;;0.70;;
35026;SDS011;60696;51.426;6.934;2023-04-03T11:21:56;0.25;;;0.25;;
35026;SDS011;60696;51.426;6.934;2023-04-03T11:24:27;1.20;;;0.40;;
35026;SDS011;60696;51.426;6.934;2023-04-03T11:26:56;0.60;;;0.30;;
35026;SDS011;60696;51.426;6.934;2023-04-03T11:29:24;2.03;;;0.50;;
35026;SDS011;60696;51.426;6.934;2023-04-03T11:34:49;2.63;;;0.40;;
35026;SDS011;60696;51.426;6.934;2023-04-03T11:39:59;1.23;;;0.47;;
35026;SDS011;60696;51.426;6.934;2023-04-03T11:42:49;1.10;;;0.65;;
35026;SDS011;60696;51.426;6.934;2023-04-03T11:46:04;1.20;;;0.50;;
35026;SDS011;60696;51.426;6.934;2023-04-03T11:51:44;1.45;;;0.60;;
35026;SDS011;60696;51.426;6.934;2023-04-03T11:53:46;2.35;;;0.60;;
35026;SDS011;60696;51.426;6.934;2023-04-03T12:04:15;1.00;;;0.57;;
35026;SDS011;60696;51.426;6.934;2023-04-03T12:06:48;0.75;;;0.50;;
35026;SDS011;60696;51.426;6.934;2023-04-03T12:14:54;0.63;;;0.20;;
35026;SDS011;60696;51.426;6.934;2023-04-03T12:17:22;0.43;;;0.30;;
35026;SDS011;60696;51.426;6.934;2023-04-03T12:19:51;2.40;;;0.60;;
35026;SDS011;60696;51.426;6.934;2023-04-03T12:22:17;0.77;;;0.43;;
35026;SDS011;60696;51.426;6.934;2023-04-03T12:24:46;2.53;;;0.75;;
35026;SDS011;60696;51.426;6.934;2023-04-03T12:27:20;0.38;;;0.30;;
35026;SDS011;60696;51.426;6.934;2023-04-03T12:35:28;0.63;;;0.63;;
35026;SDS011;60696;51.426;6.934;2023-04-03T12:44:05;2.25;;;0.50;;
35026;SDS011;60696;51.426;6.934;2023-04-03T12:46:58;1.63;;;0.50;;
35026;SDS011;60696;51.426;6.934;2023-04-03T12:52:00;1.38;;;0.77;;
35026;SDS011;60696;51.426;6.934;2023-04-03T12:54:37;5.38;;;0.35;;
35026;SDS011;60696;51.426;6.934;2023-04-03T12:59:40;0.57;;;0.45;;
35026;SDS011;60696;51.426;6.934;2023-04-03T13:04:51;0.63;;;0.50;;
35026;SDS011;60696;51.426;6.934;2023-04-03T13:07:20;1.30;;;0.40;;
35026;SDS011;60696;51.426;6.934;2023-04-03T13:09:56;0.68;;;0.22;;
35026;SDS011;60696;51.426;6.934;2023-04-03T13:12:24;2.08;;;0.40;;
35026;SDS011;60696;51.426;6.934;2023-04-03T13:14:54;1.92;;;0.52;;
35026;SDS011;60696;51.426;6.934;2023-04-03T13:17:25;0.88;;;0.32;;
35026;SDS011;60696;51.426;6.934;2023-04-03T13:19:53;1.75;;;0.40;;
35026;SDS011;60696;51.426;6.934;2023-04-03T13:22:35;1.30;;;0.40;;
35026;SDS011;60696;51.426;6.934;2023-04-03T13:25:09;2.08;;;0.52;;
35026;SDS011;60696;51.426;6.934;2023-04-03T13:27:37;1.65;;;0.63;;
35026;SDS011;60696;51.426;6.934;2023-04-03T13:30:17;0.13;;;0.13;;
35026;SDS011;60696;51.426;6.934;2023-04-03T13:33:21;2.17;;;0.70;;
35026;SDS011;60696;51.426;6.934;2023-04-03T13:36:16;0.30;;;0.30;;
35026;SDS011;60696;51.426;6.934;2023-04-03T13:38:41;0.60;;;0.45;;
35026;SDS011;60696;51.426;6.934;2023-04-03T13:44:25;1.92;;;0.60;;
35026;SDS011;60696;51.426;6.934;2023-04-03T13:47:21;5.60;;;0.65;;
35026;SDS011;60696;51.426;6.934;2023-04-03T13:50:00;1.38;;;0.47;;
35026;SDS011;60696;51.426;6.934;2023-04-03T13:52:31;2.83;;;0.85;;
35026;SDS011;60696;51.426;6.934;2023-04-03T13:55:01;0.40;;;0.28;;
35026;SDS011;60696;51.426;6.934;2023-04-03T13:57:50;2.47;;;0.50;;
35026;SDS011;60696;51.426;6.934;2023-04-03T14:03:53;1.55;;;0.35;;
35026;SDS011;60696;51.426;6.934;2023-04-03T14:06:05;2.25;;;0.60;;
35026;SDS011;60696;51.426;6.934;2023-04-03T14:08:32;2.85;;;0.65;;
35026;SDS011;60696;51.426;6.934;2023-04-03T14:13:32;2.63;;;0.50;;
35026;SDS011;60696;51.426;6.934;2023-04-03T14:15:58;0.65;;;0.35;;
35026;SDS011;60696;51.426;6.934;2023-04-03T14:18:25;1.35;;;0.50;;
35026;SDS011;60696;51.426;6.934;2023-04-03T14:20:50;9.32;;;0.80;;
35026;SDS011;60696;51.426;6.934;2023-04-03T14:23:16;0.40;;;0.38;;
35026;SDS011;60696;51.426;6.934;2023-04-03T14:25:42;0.30;;;0.20;;
35026;SDS011;60696;51.426;6.934;2023-04-03T14:28:16;3.22;;;0.65;;
35026;SDS011;60696;51.426;6.934;2023-04-03T14:30:46;0.75;;;0.20;;
35026;SDS011;60696;51.426;6.934;2023-04-03T14:33:15;0.47;;;0.30;;
35026;SDS011;60696;51.426;6.934;2023-04-03T14:35:43;0.65;;;0.40;;
35026;SDS011;60696;51.426;6.934;2023-04-03T14:38:26;0.22;;;0.22;;
35026;SDS011;60696;51.426;6.934;2023-04-03T14:40:55;0.30;;;0.30;;
35026;SDS011;60696;51.426;6.934;2023-04-03T14:43:21;1.90;;;0.80;;
35026;SDS011;60696;51.426;6.934;2023-04-03T14:45:48;0.73;;;0.30;;
35026;SDS011;60696;51.426;6.934;2023-04-03T14:48:18;1.92;;;0.38;;
35026;SDS011;60696;51.426;6.934;2023-04-03T14:50:47;3.30;;;0.70;;
35026;SDS011;60696;51.426;6.934;2023-04-03T14:53:13;0.55;;;0.15;;
35026;SDS011;60696;51.426;6.934;2023-04-03T14:55:40;0.40;;;0.40;;
35026;SDS011;60696;51.426;6.934;2023-04-03T14:58:14;3.55;;;0.73;;
35026;SDS011;60696;51.426;6.934;2023-04-03T15:00:41;0.88;;;0.50;;
35026;SDS011;60696;51.426;6.934;2023-04-03T15:03:18;1.17;;;0.30;;
35026;SDS011;60696;51.426;6.934;2023-04-03T15:05:46;2.03;;;0.40;;
35026;SDS011;60696;51.426;6.934;2023-04-03T15:08:17;0.43;;;0.30;;
35026;SDS011;60696;51.426;6.934;2023-04-03T15:10:43;1.25;;;0.40;;
35026;SDS011;60696;51.426;6.934;2023-04-03T15:13:10;1.63;;;0.93;;
35026;SDS011;60696;51.426;6.934;2023-04-03T15:15:37;0.43;;;0.30;;
35026;SDS011;60696;51.426;6.934;2023-04-03T15:18:03;4.22;;;0.73;;
35026;SDS011;60696;51.426;6.934;2023-04-03T15:20:29;3.97;;;0.60;;
35026;SDS011;60696;51.426;6.934;2023-04-03T15:22:58;0.20;;;0.20;;
35026;SDS011;60696;51.426;6.934;2023-04-03T15:25:26;0.52;;;0.40;;
35026;SDS011;60696;51.426;6.934;2023-04-03T15:27:53;0.95;;;0.38;;
35026;SDS011;60696;51.426;6.934;2023-04-03T15:30:20;0.70;;;0.35;;
35026;SDS011;60696;51.426;6.934;2023-04-03T15:32:46;1.98;;;0.60;;
35026;SDS011;60696;51.426;6.934;2023-04-03T15:35:12;7.15;;;0.93;;
35026;SDS011;60696;51.426;6.934;2023-04-03T15:37:38;1.10;;;0.47;;
35026;SDS011;60696;51.426;6.934;2023-04-03T15:40:04;1.52;;;0.50;;
35026;SDS011;60696;51.426;6.934;2023-04-03T15:42:31;2.47;;;0.70;;
35026;SDS011;60696;51.426;6.934;2023-04-03T15:44:57;0.22;;;0.22;;
35026;SDS011;60696;51.426;6.934;2023-04-03T15:47:22;3.03;;;0.70;;
35026;SDS011;60696;51.426;6.934;2023-04-03T15:49:49;1.70;;;0.70;;
35026;SDS011;60696;51.426;6.934;2023-04-03T15:52:15;8.07;;;0.90;;
35026;SDS011;60696;51.426;6.934;2023-04-03T15:54:41;2.50;;;1.65;;
35026;SDS011;60696;51.426;6.934;2023-04-03T15:57:06;3.53;;;0.90;;
35026;SDS011;60696;51.426;6.934;2023-04-03T15:59:32;1.05;;;0.60;;
35026;SDS011;60696;51.426;6.934;2023-04-03T16:01:58;1.92;;;1.10;;
35026;SDS011;60696;51.426;6.934;2023-04-03T16:04:25;1.30;;;0.52;;
35026;SDS011;60696;51.426;6.934;2023-04-03T16:06:52;0.82;;;0.50;;
35026;SDS011;60696;51.426;6.934;2023-04-03T16:09:17;2.72;;;0.80;;
35026;SDS011;60696;51.426;6.934;2023-04-03T16:11:43;1.42;;;0.50;;
35026;SDS011;60696;51.426;6.934;2023-04-03T16:14:09;1.13;;;0.68;;
35026;SDS011;60696;51.426;6.934;2023-04-03T16:16:35;4.15;;;0.70;;
35026;SDS011;60696;51.426;6.934;2023-04-03T16:19:02;1.67;;;0.55;;
35026;SDS011;60696;51.426;6.934;2023-04-03T16:21:28;3.50;;;0.57;;
35026;SDS011;60696;51.426;6.934;2023-04-03T16:23:56;1.35;;;0.40;;
35026;SDS011;60696;51.426;6.934;2023-04-03T16:26:22;2.50;;;0.65;;
35026;SDS011;60696;51.426;6.934;2023-04-03T16:28:48;2.25;;;0.20;;
35026;SDS011;60696;51.426;6.934;2023-04-03T16:31:14;0.40;;;0.35;;
35026;SDS011;60696;51.426;6.934;2023-04-03T16:33:39;3.63;;;0.50;;
35026;SDS011;60696;51.426;6.934;2023-04-03T16:36:05;1.08;;;0.30;;